createdAt,value
2023-09-21T00:00:21.863Z,18.27
2023-09-21T00:02:23.918Z,18.25
2023-09-21T00:04:28.640Z,18.22
2023-09-21T00:06:37.966Z,18.22
2023-09-21T00:08:42.797Z,18.21
2023-09-21T00:10:49.330Z,18.20
2023-09-21T00:12:51.480Z,18.20
2023-09-21T00:14:56.157Z,18.17
2023-09-21T00:17:01.669Z,18.14
2023-09-21T00:19:08.652Z,18.10
2023-09-21T00:21:14.074Z,18.03
2023-09-21T00:23:21.820Z,18.03
2023-09-21T00:25:28.962Z,17.98
2023-09-21T00:27:34.797Z,17.97
2023-09-21T00:29:37.687Z,18.00
2023-09-21T00:31:42.451Z,17.98
2023-09-21T00:33:47.202Z,18.00
2023-09-21T00:35:49.549Z,17.98
2023-09-21T00:37:54.329Z,17.96
2023-09-21T00:40:01.653Z,17.96
2023-09-21T00:42:06.831Z,17.95
2023-09-21T00:44:13.264Z,17.95
2023-09-21T00:46:18.186Z,17.96
2023-09-21T00:48:24.240Z,17.96
2023-09-21T00:50:30.554Z,17.95
2023-09-21T00:52:35.258Z,17.94
2023-09-21T00:54:40.009Z,17.94
2023-09-21T00:56:49.231Z,17.93
2023-09-21T00:58:52.016Z,17.93
2023-09-21T01:00:57.782Z,17.93
2023-09-21T01:03:09.276Z,17.93
2023-09-21T01:05:15.767Z,17.94
2023-09-21T01:07:23.775Z,17.95
2023-09-21T01:09:28.601Z,17.94
2023-09-21T01:11:38.445Z,17.95
2023-09-21T01:13:48.932Z,17.94
2023-09-21T01:15:59.803Z,17.94
2023-09-21T01:18:08.036Z,17.95
2023-09-21T01:20:23.778Z,17.95
2023-09-21T01:22:29.656Z,17.93
2023-09-21T01:24:36.988Z,17.93
2023-09-21T01:26:41.657Z,17.89
2023-09-21T01:28:47.265Z,17.85
2023-09-21T01:30:52.876Z,17.84
2023-09-21T01:32:55.135Z,17.84
2023-09-21T01:35:00.142Z,17.79
2023-09-21T01:37:07.006Z,17.80
2023-09-21T01:39:12.320Z,17.79
2023-09-21T01:41:20.249Z,17.78
2023-09-21T01:43:25.371Z,17.77
2023-09-21T01:45:30.112Z,17.78
2023-09-21T01:47:37.523Z,17.78
2023-09-21T01:49:42.629Z,17.79
2023-09-21T01:51:47.352Z,17.79
2023-09-21T01:53:54.867Z,17.78
2023-09-21T01:55:59.791Z,17.79
2023-09-21T01:58:05.388Z,17.75
2023-09-21T02:00:23.301Z,17.72
2023-09-21T02:02:28.378Z,17.70
2023-09-21T02:04:33.146Z,17.68
2023-09-21T02:06:37.980Z,17.63
2023-09-21T02:08:43.212Z,17.61
2023-09-21T02:10:51.337Z,17.59
2023-09-21T02:12:55.567Z,17.56
2023-09-21T02:15:03.265Z,17.54
2023-09-21T02:17:08.243Z,17.53
2023-09-21T02:19:13.537Z,17.50
2023-09-21T02:21:19.005Z,17.49
2023-09-21T02:23:23.812Z,17.49
2023-09-21T02:25:27.329Z,17.48
2023-09-21T02:27:35.571Z,17.45
2023-09-21T02:29:42.183Z,17.42
2023-09-21T02:31:49.512Z,17.43
2023-09-21T02:33:51.698Z,17.42
2023-09-21T02:35:56.466Z,17.42
2023-09-21T02:38:01.204Z,17.43
2023-09-21T02:40:06.176Z,17.43
2023-09-21T02:42:12.216Z,17.43
2023-09-21T02:44:17.790Z,17.45
2023-09-21T02:46:20.077Z,17.46
2023-09-21T02:48:27.516Z,17.47
2023-09-21T02:50:32.716Z,17.47
2023-09-21T02:52:34.984Z,17.48
2023-09-21T02:54:39.764Z,17.48
2023-09-21T02:56:45.267Z,17.46
2023-09-21T02:58:51.414Z,17.42
2023-09-21T03:00:56.326Z,17.40
2023-09-21T03:03:02.333Z,17.38
2023-09-21T03:05:12.440Z,17.37
2023-09-21T03:07:18.201Z,17.36
2023-09-21T03:09:24.019Z,17.34
2023-09-21T03:11:26.312Z,17.35
2023-09-21T03:13:31.504Z,17.37
2023-09-21T03:15:36.537Z,17.38
2023-09-21T03:17:41.313Z,17.33
2023-09-21T03:19:47.659Z,17.22
2023-09-21T03:21:54.977Z,17.03
2023-09-21T03:23:59.762Z,16.92
2023-09-21T03:26:04.468Z,16.88
2023-09-21T03:28:11.976Z,16.88
2023-09-21T03:30:17.586Z,16.90
2023-09-21T03:32:22.450Z,16.92
2023-09-21T03:34:27.599Z,16.95
2023-09-21T03:36:35.073Z,16.96
2023-09-21T03:38:42.693Z,16.98
2023-09-21T03:40:49.493Z,16.99
2023-09-21T03:42:56.238Z,16.99
2023-09-21T03:45:00.937Z,17.01
2023-09-21T03:47:05.727Z,17.03
2023-09-21T03:49:12.480Z,17.04
2023-09-21T03:51:19.012Z,17.04
2023-09-21T03:53:24.561Z,17.04
2023-09-21T03:55:31.860Z,17.05
2023-09-21T03:57:35.069Z,17.01
2023-09-21T03:59:41.359Z,16.94
2023-09-21T04:01:48.040Z,16.75
2023-09-21T04:03:55.566Z,16.46
2023-09-21T04:06:04.957Z,16.23
2023-09-21T04:08:10.117Z,16.18
2023-09-21T04:10:13.027Z,16.19
2023-09-21T04:12:20.364Z,16.21
2023-09-21T04:14:25.941Z,16.22
2023-09-21T04:16:30.756Z,16.24
2023-09-21T04:18:35.957Z,16.28
2023-09-21T04:20:42.698Z,16.30
2023-09-21T04:22:47.503Z,16.25
2023-09-21T04:24:49.693Z,16.25
2023-09-21T04:26:54.864Z,16.21
2023-09-21T04:29:02.208Z,16.20
2023-09-21T04:31:10.839Z,16.25
2023-09-21T04:33:18.245Z,16.30
2023-09-21T04:35:23.492Z,16.35
2023-09-21T04:37:26.318Z,16.40
2023-09-21T04:39:31.802Z,16.44
2023-09-21T04:41:37.187Z,16.46
2023-09-21T04:43:41.979Z,16.51
2023-09-21T04:45:51.257Z,16.57
2023-09-21T04:48:02.363Z,16.58
2023-09-21T04:50:13.489Z,16.55
2023-09-21T04:52:18.375Z,16.56
2023-09-21T04:54:24.074Z,16.56
2023-09-21T04:56:30.170Z,16.57
2023-09-21T04:58:36.097Z,16.57
2023-09-21T05:00:40.873Z,16.51
2023-09-21T05:02:49.107Z,16.49
2023-09-21T05:04:56.993Z,16.49
2023-09-21T05:07:01.794Z,16.49
2023-09-21T05:09:07.731Z,16.50
2023-09-21T05:11:12.829Z,16.53
2023-09-21T05:13:17.555Z,16.62
2023-09-21T05:15:23.701Z,16.68
2023-09-21T05:17:28.644Z,16.72
2023-09-21T05:19:36.206Z,16.77
2023-09-21T05:21:41.799Z,16.81
2023-09-21T05:23:46.903Z,16.84
2023-09-21T05:25:49.233Z,16.84
2023-09-21T05:27:54.028Z,16.86
2023-09-21T05:29:58.901Z,16.88
2023-09-21T05:32:04.648Z,16.92
2023-09-21T05:34:07.003Z,16.96
2023-09-21T05:36:14.582Z,17.02
2023-09-21T05:38:19.375Z,17.04
2023-09-21T05:40:24.124Z,17.08
2023-09-21T05:42:28.913Z,17.12
2023-09-21T05:44:31.166Z,17.13
2023-09-21T05:46:35.930Z,17.16
2023-09-21T05:48:43.011Z,17.19
2023-09-21T05:50:48.303Z,17.20
2023-09-21T05:52:57.791Z,17.19
2023-09-21T05:55:02.907Z,17.22
2023-09-21T05:57:07.643Z,17.28
2023-09-21T05:59:12.489Z,17.32
2023-09-21T06:01:17.586Z,17.33
2023-09-21T06:03:22.543Z,17.35
2023-09-21T06:05:27.983Z,17.37
2023-09-21T06:07:34.002Z,17.47
2023-09-21T06:09:41.352Z,17.50
2023-09-21T06:11:46.125Z,17.55
2023-09-21T06:13:51.268Z,17.52
2023-09-21T06:15:56.002Z,17.54
2023-09-21T06:18:01.535Z,17.58
2023-09-21T06:20:07.198Z,17.67
2023-09-21T06:22:14.060Z,17.78
2023-09-21T06:24:19.509Z,17.85
2023-09-21T06:26:26.856Z,17.96
2023-09-21T06:28:31.601Z,18.07
2023-09-21T06:30:36.650Z,18.14
2023-09-21T06:32:41.420Z,18.25
2023-09-21T06:34:49.419Z,18.36
2023-09-21T06:36:54.598Z,18.48
2023-09-21T06:39:00.123Z,18.52
2023-09-21T06:41:05.344Z,18.60
2023-09-21T06:43:13.599Z,18.60
2023-09-21T06:45:18.464Z,18.58
2023-09-21T06:47:24.441Z,18.60
2023-09-21T06:49:30.967Z,18.62
2023-09-21T06:51:35.707Z,18.62
2023-09-21T06:53:40.355Z,18.62
2023-09-21T06:55:45.180Z,18.59
2023-09-21T06:57:49.846Z,18.61
2023-09-21T06:59:57.236Z,18.59
2023-09-21T07:02:02.034Z,18.59
2023-09-21T07:04:05.208Z,18.60
2023-09-21T07:06:11.503Z,18.65
2023-09-21T07:08:16.822Z,18.66
2023-09-21T07:10:21.603Z,18.64
2023-09-21T07:12:23.992Z,18.67
2023-09-21T07:14:28.794Z,18.70
2023-09-21T07:16:36.138Z,18.74
2023-09-21T07:18:41.060Z,18.82
2023-09-21T07:20:46.048Z,18.86
2023-09-21T07:22:51.019Z,18.86
2023-09-21T07:24:55.744Z,18.89
2023-09-21T07:27:01.773Z,18.92
2023-09-21T07:29:08.532Z,18.93
2023-09-21T07:31:13.404Z,18.91
2023-09-21T07:33:22.251Z,18.87
2023-09-21T07:35:28.315Z,18.91
2023-09-21T07:37:33.143Z,18.93
2023-09-21T07:39:37.930Z,18.92
2023-09-21T07:41:42.757Z,18.95
2023-09-21T07:43:48.293Z,18.97
2023-09-21T07:45:55.196Z,19.04
2023-09-21T07:48:00.172Z,19.07
2023-09-21T07:50:07.976Z,19.13
2023-09-21T07:52:12.864Z,19.22
2023-09-21T07:54:17.653Z,19.34
2023-09-21T07:56:22.389Z,19.48
2023-09-21T07:58:27.073Z,19.56
2023-09-21T08:00:31.938Z,19.65
2023-09-21T08:02:36.925Z,19.77
2023-09-21T08:04:42.042Z,19.95
2023-09-21T08:06:51.285Z,20.08
2023-09-21T08:08:56.341Z,20.24
2023-09-21T08:11:01.245Z,20.46
2023-09-21T08:13:08.663Z,20.86
2023-09-21T08:15:14.867Z,21.22
2023-09-21T08:17:20.065Z,21.73
2023-09-21T08:19:24.871Z,22.14
2023-09-21T08:21:29.798Z,22.26
2023-09-21T08:23:37.496Z,22.27
2023-09-21T08:25:43.079Z,22.23
2023-09-21T08:27:47.753Z,22.22
2023-09-21T08:29:52.760Z,22.18
2023-09-21T08:31:57.667Z,22.08
2023-09-21T08:34:03.043Z,22.00
2023-09-21T08:36:10.761Z,21.96
2023-09-21T08:38:13.180Z,21.92
2023-09-21T08:40:20.602Z,21.89
2023-09-21T08:42:26.855Z,21.90
2023-09-21T08:44:31.768Z,21.89
2023-09-21T08:46:37.920Z,21.90
2023-09-21T08:48:44.870Z,21.92
2023-09-21T08:50:51.006Z,21.94
2023-09-21T08:52:57.355Z,21.93
2023-09-21T08:55:02.338Z,21.97
2023-09-21T08:57:12.602Z,22.01
2023-09-21T08:59:17.611Z,22.02
2023-09-21T09:01:23.032Z,22.10
2023-09-21T09:03:28.464Z,22.13
2023-09-21T09:05:34.600Z,22.19
2023-09-21T09:07:43.015Z,22.24
2023-09-21T09:09:48.515Z,22.28
2023-09-21T09:11:53.539Z,22.35
2023-09-21T09:14:00.923Z,22.41
2023-09-21T09:16:06.619Z,22.46
2023-09-21T09:18:12.952Z,22.48
2023-09-21T09:20:19.257Z,22.51
2023-09-21T09:22:23.905Z,22.59
2023-09-21T09:24:31.311Z,22.65
2023-09-21T09:26:38.467Z,22.69
2023-09-21T09:28:45.317Z,22.77
2023-09-21T09:30:53.672Z,22.81
2023-09-21T09:32:56.934Z,22.91
2023-09-21T09:35:03.577Z,22.94
2023-09-21T09:37:08.382Z,23.01
2023-09-21T09:39:16.592Z,23.04
2023-09-21T09:41:21.421Z,23.05
2023-09-21T09:43:28.702Z,23.09
2023-09-21T09:45:34.792Z,23.20
2023-09-21T09:47:43.353Z,23.28
2023-09-21T09:49:50.102Z,23.37
2023-09-21T09:51:57.743Z,23.35
2023-09-21T09:54:03.431Z,23.39
2023-09-21T09:56:11.299Z,23.40
2023-09-21T09:58:16.957Z,23.42
2023-09-21T10:00:24.107Z,23.45
2023-09-21T10:02:29.904Z,23.49
2023-09-21T10:04:38.033Z,23.52
2023-09-21T10:06:43.840Z,23.50
2023-09-21T10:08:48.875Z,23.49
2023-09-21T10:10:56.033Z,23.51
2023-09-21T10:13:02.224Z,23.54
2023-09-21T10:15:08.853Z,23.54
2023-09-21T10:17:16.128Z,23.65
2023-09-21T10:19:21.001Z,23.77
2023-09-21T10:21:30.698Z,23.86
2023-09-21T10:23:36.318Z,23.97
2023-09-21T10:25:42.954Z,24.05
2023-09-21T10:27:47.743Z,24.12
2023-09-21T10:29:55.562Z,24.21
2023-09-21T10:32:03.297Z,24.17
2023-09-21T10:34:06.597Z,24.22
2023-09-21T10:36:16.877Z,24.29
2023-09-21T10:38:24.585Z,24.38
2023-09-21T10:40:31.133Z,24.44
2023-09-21T10:42:38.958Z,24.43
2023-09-21T10:45:04.497Z,24.49
2023-09-21T10:47:09.484Z,24.50
2023-09-21T10:49:17.876Z,24.50
2023-09-21T10:51:25.765Z,24.59
2023-09-21T10:53:37.146Z,24.68
2023-09-21T10:55:42.538Z,24.66
2023-09-21T10:57:47.903Z,24.71
2023-09-21T11:00:05.719Z,24.71
2023-09-21T11:02:15.481Z,24.75
2023-09-21T11:04:20.174Z,24.80
2023-09-21T11:06:24.951Z,24.85
2023-09-21T11:08:31.384Z,24.81
2023-09-21T11:10:43.859Z,24.85
2023-09-21T11:12:53.282Z,24.92
2023-09-21T11:14:55.734Z,24.84
2023-09-21T11:17:00.531Z,24.87
2023-09-21T11:19:05.822Z,24.86
2023-09-21T11:21:10.865Z,24.89
2023-09-21T11:23:16.796Z,24.95
2023-09-21T11:25:23.791Z,25.02
2023-09-21T11:27:32.042Z,25.04
2023-09-21T11:29:34.839Z,25.05
2023-09-21T11:31:39.591Z,25.10
2023-09-21T11:33:44.673Z,25.11
2023-09-21T11:35:49.454Z,25.11
2023-09-21T11:37:54.484Z,25.13
2023-09-21T11:39:59.323Z,25.20
2023-09-21T11:42:04.724Z,25.26
2023-09-21T11:44:14.609Z,25.37
2023-09-21T11:46:22.541Z,25.37
2023-09-21T11:48:31.078Z,25.43
2023-09-21T11:50:36.435Z,25.42
2023-09-21T11:52:39.102Z,25.40
2023-09-21T11:54:44.064Z,25.45
2023-09-21T11:56:48.488Z,25.45
2023-09-21T11:58:55.380Z,25.50
2023-09-21T12:01:16.811Z,25.50
2023-09-21T12:03:23.622Z,25.53
2023-09-21T12:05:29.924Z,25.55
2023-09-21T12:07:35.216Z,25.61
2023-09-21T12:09:42.330Z,25.62
2023-09-21T12:11:48.164Z,25.65
2023-09-21T12:13:53.685Z,25.65
2023-09-21T12:16:00.798Z,25.68
2023-09-21T12:18:11.262Z,25.70
2023-09-21T12:20:19.074Z,25.74
2023-09-21T12:22:23.967Z,25.75
2023-09-21T12:24:28.953Z,25.78
2023-09-21T12:26:34.307Z,25.78
2023-09-21T12:28:39.653Z,25.85
2023-09-21T12:30:45.987Z,25.89
2023-09-21T12:32:51.088Z,25.93
2023-09-21T12:35:03.617Z,25.93
2023-09-21T12:37:09.046Z,25.95
2023-09-21T12:39:14.888Z,26.01
2023-09-21T12:41:22.114Z,26.02
2023-09-21T12:43:25.766Z,26.04
2023-09-21T12:45:34.996Z,26.03
2023-09-21T12:47:54.579Z,25.98
2023-09-21T12:50:05.299Z,26.01
2023-09-21T12:52:10.308Z,25.98
2023-09-21T12:54:16.845Z,25.97
2023-09-21T12:56:21.787Z,25.96
2023-09-21T12:58:26.928Z,26.00
2023-09-21T13:00:34.152Z,26.01
2023-09-21T13:02:39.133Z,26.01
2023-09-21T13:04:44.095Z,26.04
2023-09-21T13:06:51.798Z,26.04
2023-09-21T13:08:55.544Z,26.05
2023-09-21T13:11:02.110Z,26.06
2023-09-21T13:13:12.558Z,26.07
2023-09-21T13:15:18.605Z,26.11
2023-09-21T13:17:25.057Z,26.11
2023-09-21T13:19:30.784Z,26.12
2023-09-21T13:21:35.812Z,26.10
2023-09-21T13:23:43.850Z,26.08
2023-09-21T13:25:45.901Z,26.08
2023-09-21T13:27:51.396Z,26.16
2023-09-21T13:29:56.469Z,26.17
2023-09-21T13:32:01.261Z,26.17
2023-09-21T13:34:06.091Z,26.15
2023-09-21T13:36:10.963Z,26.17
2023-09-21T13:38:15.759Z,26.17
2023-09-21T13:40:23.532Z,26.23
2023-09-21T13:42:31.157Z,26.27
2023-09-21T13:44:36.294Z,26.27
2023-09-21T13:46:41.518Z,26.33
2023-09-21T13:48:46.402Z,26.34
2023-09-21T13:50:51.690Z,26.39
2023-09-21T13:52:56.442Z,26.44
2023-09-21T13:55:10.765Z,26.49
2023-09-21T13:57:30.596Z,26.53
2023-09-21T13:59:35.435Z,26.55
2023-09-21T14:01:43.342Z,26.57
2023-09-21T14:03:48.648Z,26.61
2023-09-21T14:05:54.162Z,26.61
2023-09-21T14:08:01.817Z,26.60
2023-09-21T14:10:07.951Z,26.76
2023-09-21T14:12:15.412Z,26.86
2023-09-21T14:14:22.725Z,27.00
2023-09-21T14:16:27.692Z,27.09
2023-09-21T14:18:34.486Z,27.17
2023-09-21T14:20:39.623Z,27.23
2023-09-21T14:22:52.279Z,27.24
2023-09-21T14:24:57.004Z,27.34
2023-09-21T14:27:02.022Z,27.41
2023-09-21T14:29:06.848Z,27.42
2023-09-21T14:31:16.000Z,27.43
2023-09-21T14:33:20.790Z,27.43
2023-09-21T14:35:27.086Z,27.45
2023-09-21T14:37:34.149Z,27.42
2023-09-21T14:39:39.987Z,27.47
2023-09-21T14:41:44.892Z,27.57
2023-09-21T14:43:49.767Z,27.59
2023-09-21T14:45:54.807Z,27.58
2023-09-21T14:48:02.544Z,27.58
2023-09-21T14:50:09.338Z,27.56
2023-09-21T14:52:14.378Z,27.49
2023-09-21T14:54:19.507Z,27.44
2023-09-21T14:56:25.408Z,27.42
2023-09-21T14:58:30.324Z,27.38
2023-09-21T15:00:36.158Z,27.38
2023-09-21T15:02:40.980Z,27.34
2023-09-21T15:04:48.307Z,27.30
2023-09-21T15:06:51.924Z,27.26
2023-09-21T15:08:57.805Z,27.25
2023-09-21T15:11:02.790Z,27.22
2023-09-21T15:13:07.593Z,27.17
2023-09-21T15:15:14.421Z,27.17
2023-09-21T15:17:20.714Z,27.13
2023-09-21T15:19:23.543Z,27.11
2023-09-21T15:21:32.411Z,27.10
2023-09-21T15:23:37.495Z,27.06
2023-09-21T15:25:48.063Z,27.01
2023-09-21T15:27:55.847Z,26.98
2023-09-21T15:30:00.826Z,26.98
2023-09-21T15:32:05.799Z,26.97
2023-09-21T15:34:10.526Z,26.92
2023-09-21T15:36:15.291Z,26.89
2023-09-21T15:38:23.324Z,26.88
2023-09-21T15:40:29.662Z,26.85
2023-09-21T15:42:34.788Z,26.81
2023-09-21T15:44:39.987Z,26.78
2023-09-21T15:46:46.316Z,26.74
2023-09-21T15:48:51.638Z,26.68
2023-09-21T15:50:55.094Z,26.61
2023-09-21T15:53:01.201Z,26.60
2023-09-21T15:55:12.636Z,26.59
2023-09-21T15:57:17.576Z,26.56
2023-09-21T15:59:22.526Z,26.55
2023-09-21T16:01:29.357Z,26.49
2023-09-21T16:03:35.068Z,26.48
2023-09-21T16:05:41.043Z,26.39
2023-09-21T16:07:45.798Z,26.36
2023-09-21T16:09:50.535Z,26.37
2023-09-21T16:11:59.145Z,26.35
2023-09-21T16:14:03.877Z,26.30
2023-09-21T16:16:10.825Z,26.22
2023-09-21T16:18:15.645Z,26.17
2023-09-21T16:20:21.066Z,26.14
2023-09-21T16:22:26.084Z,26.10
2023-09-21T16:24:39.266Z,26.09
2023-09-21T16:26:44.498Z,26.06
2023-09-21T16:28:51.832Z,26.01
2023-09-21T16:30:58.757Z,26.01
2023-09-21T16:33:05.337Z,25.98
2023-09-21T16:35:10.859Z,25.95
2023-09-21T16:37:19.608Z,25.96
2023-09-21T16:39:25.404Z,25.95
2023-09-21T16:41:31.032Z,25.94
2023-09-21T16:43:37.442Z,25.93
2023-09-21T16:45:44.853Z,25.92
2023-09-21T16:47:49.925Z,25.92
2023-09-21T16:49:55.972Z,25.91
2023-09-21T16:52:03.856Z,25.90
2023-09-21T16:54:10.437Z,25.87
2023-09-21T16:56:13.031Z,25.87
2023-09-21T16:58:17.797Z,25.85
2023-09-21T17:00:22.603Z,25.81
2023-09-21T17:02:30.105Z,25.71
2023-09-21T17:04:34.989Z,25.67
2023-09-21T17:06:39.854Z,25.62
2023-09-21T17:08:49.681Z,25.53
2023-09-21T17:10:59.391Z,25.47
2023-09-21T17:13:04.215Z,25.40
2023-09-21T17:15:10.578Z,25.34
2023-09-21T17:17:17.535Z,25.29
2023-09-21T17:19:25.216Z,25.23
2023-09-21T17:21:31.675Z,25.18
2023-09-21T17:23:36.476Z,25.15
2023-09-21T17:25:44.856Z,25.10
2023-09-21T17:27:49.837Z,25.07
2023-09-21T17:29:59.122Z,25.01
2023-09-21T17:32:06.268Z,25.00
2023-09-21T17:34:14.259Z,25.00
2023-09-21T17:36:25.230Z,25.00
2023-09-21T17:38:27.457Z,25.01
2023-09-21T17:40:32.253Z,25.02
2023-09-21T17:42:42.785Z,25.03
2023-09-21T17:44:50.923Z,25.03
2023-09-21T17:46:55.629Z,25.01
2023-09-21T17:49:02.027Z,24.96
2023-09-21T17:51:07.847Z,24.96
2023-09-21T17:53:19.005Z,24.95
2023-09-21T17:55:28.234Z,24.93
2023-09-21T17:57:33.924Z,24.89
2023-09-21T17:59:40.947Z,24.83
2023-09-21T18:01:46.973Z,24.79
2023-09-21T18:03:58.216Z,24.73
2023-09-21T18:06:05.494Z,24.69
2023-09-21T18:08:10.396Z,24.66
2023-09-21T18:10:20.311Z,24.61
2023-09-21T18:12:26.090Z,24.61
2023-09-21T18:14:30.924Z,24.61
2023-09-21T18:16:39.642Z,24.58
2023-09-21T18:18:44.855Z,24.58
2023-09-21T18:20:52.358Z,24.55
2023-09-21T18:22:58.205Z,24.52
2023-09-21T18:25:07.710Z,24.52
2023-09-21T18:27:17.165Z,24.52
2023-09-21T18:29:22.120Z,24.50
2023-09-21T18:31:29.504Z,24.48
2023-09-21T18:33:34.594Z,24.46
2023-09-21T18:35:42.210Z,24.47
2023-09-21T18:37:48.475Z,24.46
2023-09-21T18:39:53.441Z,24.40
2023-09-21T18:42:01.543Z,24.35
2023-09-21T18:44:09.428Z,24.30
2023-09-21T18:46:14.367Z,24.27
2023-09-21T18:48:19.289Z,24.24
2023-09-21T18:50:21.731Z,24.18
2023-09-21T18:52:28.960Z,24.13
2023-09-21T18:54:34.017Z,24.07
2023-09-21T18:56:50.742Z,24.02
2023-09-21T18:59:02.952Z,23.96
2023-09-21T19:01:13.542Z,23.92
2023-09-21T19:03:19.446Z,23.88
2023-09-21T19:05:22.506Z,23.83
2023-09-21T19:07:27.231Z,23.78
2023-09-21T19:09:32.831Z,23.75
2023-09-21T19:11:37.898Z,23.67
2023-09-21T19:13:42.603Z,23.66
2023-09-21T19:15:47.937Z,23.63
2023-09-21T19:17:56.554Z,23.59
2023-09-21T19:20:01.576Z,23.56
2023-09-21T19:22:08.460Z,23.53
2023-09-21T19:24:13.334Z,23.52
2023-09-21T19:26:18.911Z,23.54
2023-09-21T19:28:24.729Z,23.52
2023-09-21T19:30:29.692Z,23.52
2023-09-21T19:32:35.787Z,23.50
2023-09-21T19:34:43.256Z,23.48
2023-09-21T19:36:48.095Z,23.46
2023-09-21T19:38:52.875Z,23.45
2023-09-21T19:40:57.674Z,23.46
2023-09-21T19:43:02.365Z,23.43
2023-09-21T19:45:08.190Z,23.44
2023-09-21T19:47:15.113Z,23.44
2023-09-21T19:49:20.384Z,23.40
2023-09-21T19:51:26.492Z,23.39
2023-09-21T19:53:34.116Z,23.40
2023-09-21T19:55:42.782Z,23.39
2023-09-21T19:57:50.435Z,23.39
2023-09-21T19:59:56.722Z,23.36
2023-09-21T20:02:01.522Z,23.38
2023-09-21T20:04:06.542Z,23.38
2023-09-21T20:06:11.598Z,23.35
2023-09-21T20:08:19.109Z,23.34
2023-09-21T20:10:21.326Z,23.28
2023-09-21T20:12:26.406Z,23.27
2023-09-21T20:14:31.393Z,23.26
2023-09-21T20:16:37.654Z,23.25
2023-09-21T20:18:42.556Z,23.24
2023-09-21T20:20:47.396Z,23.23
2023-09-21T20:22:49.775Z,23.20
2023-09-21T20:24:57.158Z,23.18
2023-09-21T20:27:01.891Z,23.18
2023-09-21T20:29:08.910Z,23.15
2023-09-21T20:31:14.452Z,23.10
2023-09-21T20:33:19.297Z,23.05
2023-09-21T20:35:25.276Z,23.03
2023-09-21T20:37:30.016Z,23.02
2023-09-21T20:39:34.855Z,23.02
2023-09-21T20:41:39.759Z,23.02
2023-09-21T20:43:44.660Z,23.01
2023-09-21T20:45:49.639Z,22.99
2023-09-21T20:47:54.473Z,22.99
2023-09-21T20:49:59.192Z,23.00
2023-09-21T20:52:01.268Z,23.00
2023-09-21T20:54:06.277Z,22.97
2023-09-21T20:56:11.066Z,22.85
2023-09-21T20:58:18.366Z,22.12
2023-09-21T21:00:21.347Z,21.55
2023-09-21T21:02:26.284Z,21.00
2023-09-21T21:04:28.515Z,20.70
2023-09-21T21:06:33.246Z,20.28
2023-09-21T21:08:38.055Z,19.88
2023-09-21T21:10:40.206Z,19.49
2023-09-21T21:12:45.073Z,18.13
2023-09-21T21:14:52.448Z,17.71
2023-09-21T21:16:57.172Z,17.55
2023-09-21T21:19:02.048Z,17.51
2023-09-21T21:21:07.358Z,16.88
2023-09-21T21:23:12.137Z,16.50
2023-09-21T21:25:16.834Z,16.46
2023-09-21T21:27:21.764Z,16.40
2023-09-21T21:29:26.750Z,16.34
2023-09-21T21:31:34.082Z,16.43
2023-09-21T21:33:38.940Z,16.48
2023-09-21T21:35:44.165Z,16.67
2023-09-21T21:37:48.935Z,16.73
2023-09-21T21:39:53.807Z,16.81
2023-09-21T21:41:58.745Z,16.92
2023-09-21T21:44:00.944Z,16.96
2023-09-21T21:46:05.809Z,17.05
2023-09-21T21:48:13.355Z,17.07
2023-09-21T21:50:18.134Z,17.12
2023-09-21T21:52:22.863Z,17.14
2023-09-21T21:54:27.519Z,17.20
2023-09-21T21:56:32.300Z,17.17
2023-09-21T21:58:37.095Z,17.19
2023-09-21T22:00:42.879Z,17.24
2023-09-21T22:02:47.718Z,17.23
2023-09-21T22:04:55.206Z,17.18
2023-09-21T22:06:59.861Z,17.19
2023-09-21T22:09:04.670Z,17.35
2023-09-21T22:11:10.433Z,17.46
2023-09-21T22:13:15.091Z,17.65
2023-09-21T22:15:20.413Z,17.85
2023-09-21T22:17:25.553Z,18.02
2023-09-21T22:19:30.227Z,18.05
2023-09-21T22:21:37.969Z,18.12
2023-09-21T22:23:40.505Z,18.30
2023-09-21T22:25:45.260Z,18.43
2023-09-21T22:27:50.013Z,18.56
2023-09-21T22:29:55.483Z,18.64
2023-09-21T22:32:00.195Z,18.71
2023-09-21T22:34:05.285Z,18.78
2023-09-21T22:36:10.051Z,18.84
2023-09-21T22:38:19.029Z,18.90
2023-09-21T22:40:23.829Z,18.97
2023-09-21T22:42:38.736Z,19.02
2023-09-21T22:44:51.867Z,19.09
2023-09-21T22:46:57.646Z,19.04
2023-09-21T22:49:02.386Z,19.05
2023-09-21T22:51:07.146Z,19.10
2023-09-21T22:53:13.895Z,19.10
2023-09-21T22:55:23.041Z,19.10
2023-09-21T22:57:25.132Z,19.10
2023-09-21T22:59:29.958Z,19.13
2023-09-21T23:01:33.313Z,19.16
2023-09-21T23:03:38.132Z,19.22
2023-09-21T23:05:42.978Z,19.28
2023-09-21T23:07:49.490Z,19.34
2023-09-21T23:09:54.419Z,19.33
2023-09-21T23:12:01.915Z,19.35
2023-09-21T23:14:07.317Z,19.27
2023-09-21T23:16:09.707Z,19.20
2023-09-21T23:18:15.135Z,19.21
2023-09-21T23:20:21.254Z,19.14
2023-09-21T23:22:23.317Z,19.11
2023-09-21T23:24:28.258Z,19.08
2023-09-21T23:26:35.021Z,19.03
2023-09-21T23:28:42.371Z,19.00
2023-09-21T23:30:45.189Z,19.07
2023-09-21T23:32:50.855Z,19.09
2023-09-21T23:34:56.679Z,19.10
2023-09-21T23:37:01.462Z,19.13
2023-09-21T23:39:11.718Z,19.09
2023-09-21T23:41:16.547Z,19.08
2023-09-21T23:43:21.263Z,19.01
2023-09-21T23:45:28.711Z,18.97
2023-09-21T23:47:33.439Z,18.89
2023-09-21T23:49:38.918Z,18.77
2023-09-21T23:51:45.088Z,18.76
2023-09-21T23:53:49.895Z,18.82
2023-09-21T23:55:56.569Z,18.89
2023-09-21T23:58:01.315Z,18.94
